Unalaska, AK (99685)

11:52 PM AKDT on October 23, 2014 (GMT -0800)
Dutch Harbor | Change Station
CLOSE
Current Station
Airport
Location: Dutch Harbor,
Elevation: 13 ft
Nearby Weather Stations

Elev 13 ft 53.90 °N, 166.54 °W | Updated 27 minutes ago

Light Rain
Light Rain
46 °F
Feels Like 40 °F
N
15
Wind Variable Wind from WSW

Today
High -- | Low -- °F
--% Chance of Precip.
Yesterday
High -- | Low -- °F
Precip. -- in
9:50 AM 7:51 PM
New Moon, 0% visible
Pressure 30.09 in
Visibility 10.0 miles
Clouds Mostly Cloudy 2600 ft
Overcast 3200 ft
Windchill 40 °F
Dew Point 37 °F
Humidity 71%
Rainfall 0.00 in
Snow Depth Not available.
UV 0 out of 12
Pollen Not available.
Air Quality Not available.
Flu Activity Sporadic
SPECI PADU 240725Z AUTO 24013KT 10SM -RA BKN026 OVC032 08/03 A3009 RMK AO2 RAB21 PNO $

More Conditions Fewer Conditions

Pressure 30.09 in
Visibility 10.0 miles
Clouds Mostly Cloudy 2600 ft
Overcast 3200 ft
Windchill 40 °F
Dew Point 37 °F
Humidity 71%
Rainfall 0.00 in
Snow Depth Not available.
UV 0 out of 12
Pollen Not available.
Air Quality Not available.
Flu Activity Sporadic
SPECI PADU 240725Z AUTO 24013KT 10SM -RA BKN026 OVC032 08/03 A3009 RMK AO2 RAB21 PNO $

More Conditions Fewer Conditions

10-Day Weather Forecast

Almanac

Astronomy

Oct. 23, 2014 Rise Set
Actual Time 9:50 AM AKDT 7:51 PM AKDT
Civil Twilight 9:13 AM AKDT 8:27 PM AKDT
Nautical Twilight 8:32 AM AKDT 9:08 PM AKDT
Astronomical Twilight 7:51 AM AKDT 9:49 PM AKDT
Moon 9:41 AM AKDT (10/23) 7:58 PM AKDT (10/23)
Length of Visible Light 11h 13m
Length of Day
10h 00m
Tomorrow will be 4m 5s shorter.
New Moon, 0% of the Moon is Illuminated
Oct 24
New Moon
Oct 30
First Quarter
Nov 6
Full
Nov 14
Last Quarter
Nov 22
New

Community

WunderPhotos

Upload Photos

1,764,512 photos uploaded!

WunderBlogs® & News

Nearby

Snow Depth

Station Depth Elevation
Port Graham 0 in 300 ft
Mcneil Canyon 1 in 1320 ft
MF Bradley River 0 in 2300 ft
Rocky Point 4 in 500 ft
Cooper Lake 0 in 1200 ft

Earthquake Activity

City Distance Mag. Time & Date
No recent earthquake activity has been reported nearby.
Minimum magnitude displayed is 2.5.

Coastal Water Temperatures

Place Temperature
No Stations Reporting

Nearby Weather Stations